Time;durP1;ratioP1;P1;durP2;ratioP2;P2;SDS_P1;SDS_P2;PMS_P1;PMS_P2;Temp;Humidity;BMP_temperature;BMP_pressure;BME280_temperature;BME280_humidity;BME280_pressure;Samples;Min_cycle;Max_cycle;Signal;HPM_P1;HPM_P2
2023/05/21 00:01:24;;;;;;;7.30;3.40;;;;;;;15.14;100.00;95844.72;5078145;28;20680;-73
2023/05/21 00:03:50;;;;;;;5.85;3.17;;;;;;;15.11;100.00;95845.16;5077887;28;20268;-68
2023/05/21 00:06:19;;;;;;;6.45;2.83;;;;;;;15.07;100.00;95836.00;5077927;28;20228;-72
2023/05/21 00:08:46;;;;;;;9.70;3.35;;;;;;;15.00;100.00;95835.19;5077382;28;20204;-73
2023/05/21 00:11:14;;;;;;;5.85;2.92;;;;;;;15.22;100.00;95841.81;5077709;28;20215;-69
2023/05/21 00:13:40;;;;;;;6.80;3.60;;;;;;;15.18;100.00;95837.94;5078075;28;20582;-73
2023/05/21 00:16:09;;;;;;;5.40;3.20;;;;;;;15.21;100.00;95840.22;5078083;28;20223;-70
2023/05/21 00:18:38;;;;;;;8.45;3.78;;;;;;;15.25;100.00;95842.22;5076451;28;20251;-72
2023/05/21 00:21:04;;;;;;;7.13;3.63;;;;;;;15.21;100.00;95824.28;5077366;28;20207;-73
2023/05/21 00:23:32;;;;;;;3.88;2.38;;;;;;;15.20;100.00;95830.59;5078258;28;20211;-73
2023/05/21 00:25:58;;;;;;;13.20;4.63;;;;;;;15.13;100.00;95829.81;5077806;28;20255;-73
2023/05/21 00:28:26;;;;;;;6.07;3.40;;;;;;;15.08;100.00;95831.47;5076910;28;20215;-73
2023/05/21 00:30:53;;;;;;;6.50;3.20;;;;;;;15.06;100.00;95823.75;5078061;28;21043;-69
2023/05/21 00:33:20;;;;;;;6.05;3.33;;;;;;;15.08;100.00;95818.22;5078028;28;20212;-71
2023/05/21 00:35:47;;;;;;;6.85;3.30;;;;;;;15.00;100.00;95824.59;5076891;28;20199;-70
2023/05/21 00:38:13;;;;;;;5.05;3.10;;;;;;;14.92;100.00;95822.19;5076677;28;20227;-68
2023/05/21 00:40:40;;;;;;;9.65;4.85;;;;;;;14.84;100.00;95808.34;5078413;28;20203;-70
2023/05/21 00:43:08;;;;;;;5.03;3.17;;;;;;;14.92;100.00;95805.47;5075879;28;20259;-72
2023/05/21 00:45:37;;;;;;;6.55;3.45;;;;;;;14.84;100.00;95814.50;5077184;28;20203;-72
2023/05/21 00:48:05;;;;;;;8.20;3.90;;;;;;;14.88;100.00;95815.69;5076671;28;20319;-73
2023/05/21 00:50:31;;;;;;;6.63;3.03;;;;;;;14.94;100.00;95814.84;5077304;28;20280;-70
2023/05/21 00:52:58;;;;;;;5.38;3.38;;;;;;;14.91;100.00;95815.25;5077216;28;20291;-71
2023/05/21 00:55:25;;;;;;;8.25;3.58;;;;;;;14.96;100.00;95806.66;5077370;28;20211;-72
2023/05/21 00:57:51;;;;;;;7.72;3.63;;;;;;;14.87;100.00;95806.09;5076629;28;20231;-73
2023/05/21 01:00:19;;;;;;;5.95;3.08;;;;;;;15.02;100.00;95808.44;5077053;28;20204;-70
2023/05/21 01:02:47;;;;;;;8.77;3.65;;;;;;;15.03;100.00;95813.56;5076972;28;20668;-73
2023/05/21 01:05:14;;;;;;;6.93;3.72;;;;;;;14.94;100.00;95816.66;5076858;28;20212;-69
2023/05/21 01:07:41;;;;;;;4.13;2.72;;;;;;;14.95;100.00;95803.19;5076328;28;20227;-71
2023/05/21 01:10:10;;;;;;;6.40;3.78;;;;;;;15.02;100.00;95805.78;5076793;28;20813;-73
2023/05/21 01:12:39;;;;;;;6.57;3.53;;;;;;;15.03;100.00;95805.59;5076625;28;20204;-73
2023/05/21 01:15:07;;;;;;;6.00;3.15;;;;;;;15.06;100.00;95802.50;5076528;28;20204;-70
2023/05/21 01:17:34;;;;;;;6.95;3.60;;;;;;;14.95;100.00;95813.00;5076237;28;21121;-73
2023/05/21 01:20:07;;;;;;;6.45;3.47;;;;;;;14.93;100.00;95799.13;5076912;28;21212;-71
2023/05/21 01:22:35;;;;;;;7.03;4.18;;;;;;;14.95;100.00;95805.84;5076629;28;20249;-69
2023/05/21 01:25:03;;;;;;;8.88;4.05;;;;;;;15.03;100.00;95804.78;5076768;28;20206;-71
2023/05/21 01:27:30;;;;;;;9.85;4.07;;;;;;;14.93;100.00;95807.91;5076143;28;20259;-69
2023/05/21 01:29:57;;;;;;;8.75;4.07;;;;;;;14.92;100.00;95810.78;5076343;28;20225;-73
2023/05/21 01:32:29;;;;;;;8.93;4.35;;;;;;;14.77;100.00;95802.28;5076790;28;20203;-73
2023/05/21 01:35:02;;;;;;;7.50;4.00;;;;;;;14.62;100.00;95811.56;5076896;28;20204;-69
2023/05/21 01:37:31;;;;;;;6.55;3.58;;;;;;;14.71;100.00;95806.63;5075697;28;20216;-70
2023/05/21 01:40:08;;;;;;;8.98;4.25;;;;;;;14.90;100.00;95812.81;5076041;28;20211;-73
2023/05/21 01:42:37;;;;;;;6.43;3.88;;;;;;;14.82;100.00;95807.78;5076319;28;20204;-71
2023/05/21 01:45:06;;;;;;;6.53;4.10;;;;;;;14.74;100.00;95803.53;5076016;28;20211;-68
2023/05/21 01:47:35;;;;;;;6.95;3.72;;;;;;;14.69;100.00;95802.56;5075303;28;20259;-68
2023/05/21 01:50:03;;;;;;;10.23;4.80;;;;;;;14.52;100.00;95803.25;5076764;28;20211;-72
2023/05/21 01:52:29;;;;;;;4.18;2.97;;;;;;;14.47;100.00;95806.50;5079124;28;20290;-74
2023/05/21 01:54:56;;;;;;;9.82;3.85;;;;;;;14.55;100.00;95802.81;5080171;28;20203;-74
2023/05/21 01:57:24;;;;;;;6.22;3.00;;;;;;;14.62;100.00;95803.59;5079624;28;20220;-72
2023/05/21 01:59:52;;;;;;;6.88;3.00;;;;;;;14.66;100.00;95800.31;5081268;28;20203;-71
2023/05/21 02:02:19;;;;;;;11.77;3.28;;;;;;;14.72;100.00;95800.25;5080375;28;20219;-72
2023/05/21 02:04:46;;;;;;;6.38;2.80;;;;;;;14.65;100.00;95794.19;5079905;28;20538;-71
2023/05/21 02:07:13;;;;;;;7.03;3.75;;;;;;;14.47;100.00;95800.41;5080192;28;20716;-69
2023/05/21 02:09:39;;;;;;;7.85;4.38;;;;;;;14.32;100.00;95791.91;5077398;28;20643;-73
2023/05/21 02:12:07;;;;;;;7.63;3.22;;;;;;;14.50;100.00;95797.31;5080193;28;20204;-72
2023/05/21 02:14:35;;;;;;;9.07;3.92;;;;;;;14.23;100.00;95798.47;5080558;28;20337;-73
2023/05/21 02:17:01;;;;;;;7.40;4.05;;;;;;;14.32;100.00;95802.50;5080381;28;20223;-73
2023/05/21 02:19:28;;;;;;;6.53;3.47;;;;;;;14.31;100.00;95800.91;5078606;28;20291;-74
2023/05/21 02:21:54;;;;;;;9.02;3.33;;;;;;;14.25;100.00;95799.88;5079978;28;20200;-71
2023/05/21 02:24:23;;;;;;;6.00;3.63;;;;;;;14.12;100.00;95802.56;5080653;28;20203;-70
2023/05/21 02:26:51;;;;;;;7.28;3.13;;;;;;;14.25;100.00;95796.44;5079837;28;20231;-70
2023/05/21 02:29:17;;;;;;;6.43;2.83;;;;;;;14.28;100.00;95801.28;5078931;28;20203;-73
2023/05/21 02:31:45;;;;;;;5.10;3.25;;;;;;;14.34;100.00;95800.47;5080021;28;21306;-68
2023/05/21 02:34:11;;;;;;;5.53;3.15;;;;;;;14.30;100.00;95789.47;5079993;28;20200;-74
2023/05/21 02:36:40;;;;;;;6.53;3.58;;;;;;;14.08;100.00;95789.97;5079605;28;20199;-73
2023/05/21 02:39:06;;;;;;;8.05;2.92;;;;;;;14.12;100.00;95791.97;5079322;28;20233;-68
2023/05/21 02:41:33;;;;;;;10.68;2.78;;;;;;;14.08;100.00;95795.28;5079771;28;20677;-69
2023/05/21 02:43:59;;;;;;;8.18;3.90;;;;;;;13.92;100.00;95787.72;5077002;28;20295;-68
2023/05/21 02:46:26;;;;;;;5.32;2.92;;;;;;;13.84;100.00;95793.25;5079720;28;20203;-70
2023/05/21 02:48:54;;;;;;;6.40;3.45;;;;;;;13.92;100.00;95793.03;5079206;28;20727;-72
2023/05/21 02:51:20;;;;;;;7.50;2.58;;;;;;;13.89;100.00;95790.81;5079396;28;20200;-73
2023/05/21 02:53:46;;;;;;;13.70;3.75;;;;;;;13.74;100.00;95792.88;5079858;28;20204;-71
2023/05/21 02:56:13;;;;;;;5.28;3.67;;;;;;;13.86;100.00;95788.59;5080128;28;20653;-73
2023/05/21 02:58:39;;;;;;;4.63;3.47;;;;;;;13.76;100.00;95787.34;5078097;28;21052;-72
2023/05/21 03:01:06;;;;;;;5.82;3.40;;;;;;;13.67;100.00;95789.44;5079458;28;20215;-70
2023/05/21 03:03:32;;;;;;;9.05;3.83;;;;;;;13.51;100.00;95784.56;5080471;28;20200;-72
2023/05/21 03:06:00;;;;;;;8.00;3.55;;;;;;;13.62;100.00;95791.88;5079064;28;20208;-70
2023/05/21 03:08:26;;;;;;;6.47;3.13;;;;;;;13.52;100.00;95794.13;5078461;28;20242;-68
2023/05/21 03:10:53;;;;;;;7.22;3.45;;;;;;;13.46;100.00;95794.13;5079309;28;20216;-72
2023/05/21 03:13:20;;;;;;;8.93;3.55;;;;;;;13.55;100.00;95777.81;5079337;28;20626;-71
2023/05/21 03:15:46;;;;;;;5.80;2.35;;;;;;;13.57;100.00;95783.75;5079065;28;20219;-71
2023/05/21 03:18:13;;;;;;;4.30;2.65;;;;;;;13.48;100.00;95779.69;5078704;28;20220;-73
2023/05/21 03:20:42;;;;;;;9.60;4.18;;;;;;;13.46;100.00;95779.06;5078843;28;20212;-68
2023/05/21 03:23:11;;;;;;;4.40;3.03;;;;;;;13.36;100.00;95782.34;5078783;28;20199;-72
2023/05/21 03:25:38;;;;;;;8.77;4.72;;;;;;;13.32;100.00;95786.41;5079221;28;20200;-74
2023/05/21 03:28:05;;;;;;;6.13;2.83;;;;;;;13.42;100.00;95783.13;5078389;28;20232;-70
2023/05/21 03:30:32;;;;;;;9.98;3.78;;;;;;;13.40;100.00;95777.25;5078711;28;20205;-69
2023/05/21 03:32:58;;;;;;;10.23;4.05;;;;;;;13.37;100.00;95781.34;5078813;28;20210;-69
2023/05/21 03:35:25;;;;;;;6.47;3.33;;;;;;;13.23;100.00;95780.50;5079120;28;20211;-73
2023/05/21 03:37:51;;;;;;;7.45;3.47;;;;;;;13.22;100.00;95780.72;5077888;28;20216;-71
2023/05/21 03:40:20;;;;;;;6.32;3.47;;;;;;;13.40;100.00;95785.19;5077760;28;20219;-70
2023/05/21 03:42:47;;;;;;;4.90;3.08;;;;;;;13.31;100.00;95782.94;5078661;28;20211;-72
2023/05/21 03:45:13;;;;;;;4.72;3.10;;;;;;;13.35;100.00;95780.72;5078703;28;20671;-70
2023/05/21 03:47:40;;;;;;;8.32;3.38;;;;;;;13.20;100.00;95780.94;5077921;28;20239;-71
2023/05/21 03:50:08;;;;;;;7.32;2.90;;;;;;;13.32;100.00;95783.78;5078317;28;20675;-71
2023/05/21 03:52:35;;;;;;;5.95;3.08;;;;;;;13.28;100.00;95786.00;5077996;28;20207;-73
2023/05/21 03:55:01;;;;;;;6.38;3.20;;;;;;;13.23;100.00;95782.34;5078091;28;20204;-71
2023/05/21 03:57:29;;;;;;;8.00;3.38;;;;;;;13.37;100.00;95786.63;5077865;28;20220;-71
2023/05/21 03:59:57;;;;;;;5.60;2.65;;;;;;;13.44;100.00;95786.41;5077773;28;21255;-73
2023/05/21 04:02:25;;;;;;;7.50;3.63;;;;;;;13.45;100.00;95793.34;5078081;28;20323;-73
2023/05/21 04:04:52;;;;;;;11.73;3.28;;;;;;;13.46;100.00;95789.66;5078279;28;20204;-72
2023/05/21 04:07:18;;;;;;;13.40;4.75;;;;;;;13.59;100.00;95789.66;5078026;28;20263;-73
2023/05/21 04:09:45;;;;;;;8.18;3.60;;;;;;;13.50;100.00;95790.06;5076593;28;20704;-72
2023/05/21 04:12:12;;;;;;;9.48;3.38;;;;;;;13.52;100.00;95788.84;5077870;28;20231;-69
2023/05/21 04:14:40;;;;;;;6.70;3.15;;;;;;;13.66;100.00;95793.09;5079100;28;20204;-71
2023/05/21 04:17:06;;;;;;;5.63;2.30;;;;;;;13.54;100.00;95797.41;5077808;28;20592;-73
2023/05/21 04:19:32;;;;;;;6.20;3.78;;;;;;;13.45;100.00;95793.34;5077080;28;20206;-72
2023/05/21 04:21:59;;;;;;;5.03;3.25;;;;;;;13.51;100.00;95795.13;5078172;28;20210;-73
2023/05/21 04:24:26;;;;;;;6.70;3.33;;;;;;;13.56;100.00;95800.63;5077978;28;20211;-71
2023/05/21 04:26:52;;;;;;;8.13;4.00;;;;;;;13.53;100.00;95810.81;5077690;28;20224;-74
2023/05/21 04:29:20;;;;;;;5.93;3.38;;;;;;;13.71;100.00;95814.47;5077593;28;20203;-73
2023/05/21 04:31:48;;;;;;;3.65;2.42;;;;;;;13.67;100.00;95817.72;5077545;28;20330;-70
2023/05/21 04:34:16;;;;;;;6.35;3.20;;;;;;;13.70;100.00;95814.69;5077596;28;20235;-74
2023/05/21 04:36:43;;;;;;;5.35;3.53;;;;;;;13.76;100.00;95817.31;5076951;28;20227;-68
2023/05/21 04:39:10;;;;;;;6.15;3.47;;;;;;;13.81;100.00;95820.16;5077431;28;20579;-70
2023/05/21 04:41:37;;;;;;;6.82;2.35;;;;;;;13.87;100.00;95829.13;5077168;28;20802;-70
2023/05/21 04:44:03;;;;;;;13.50;2.17;;;;;;;13.89;100.00;95827.09;5077562;28;20208;-68
2023/05/21 04:46:30;;;;;;;4.53;2.25;;;;;;;13.86;100.00;95822.19;5077774;28;20354;-70
2023/05/21 04:49:01;;;;;;;7.28;2.63;;;;;;;14.03;100.00;95822.34;5076809;28;20227;-69
2023/05/21 04:51:28;;;;;;;5.18;2.42;;;;;;;13.99;100.00;95823.78;5077001;28;20228;-74
2023/05/21 04:53:54;;;;;;;4.22;2.22;;;;;;;14.07;100.00;95825.41;5077486;28;20231;-70
2023/05/21 04:56:22;;;;;;;6.50;3.15;;;;;;;14.13;100.00;95820.09;5077451;28;20717;-74
2023/05/21 04:58:48;;;;;;;6.90;3.40;;;;;;;14.22;100.00;95824.16;5076345;28;20417;-72
2023/05/21 05:01:15;;;;;;;6.35;3.78;;;;;;;14.31;100.00;95822.09;5077165;28;20232;-72
2023/05/21 05:03:42;;;;;;;5.32;2.40;;;;;;;14.38;100.00;95828.19;5077234;28;20200;-71
2023/05/21 05:06:10;;;;;;;4.28;2.40;;;;;;;14.45;100.00;95827.13;5075951;28;21172;-73
2023/05/21 05:08:36;;;;;;;4.82;2.55;;;;;;;14.47;100.00;95829.56;5076378;28;20609;-73
2023/05/21 05:11:03;;;;;;;6.35;3.38;;;;;;;14.38;100.00;95818.38;5076621;28;20212;-73
2023/05/21 05:13:29;;;;;;;5.35;2.47;;;;;;;14.42;100.00;95821.44;5076982;28;20207;-73
2023/05/21 05:15:56;;;;;;;5.00;3.40;;;;;;;14.63;100.00;95821.16;5077159;28;20207;-73
2023/05/21 05:18:22;;;;;;;4.97;2.90;;;;;;;14.68;100.00;95827.44;5076418;28;20219;-73
2023/05/21 05:20:49;;;;;;;3.83;2.63;;;;;;;14.77;100.00;95836.78;5076345;28;20214;-71
2023/05/21 05:23:17;;;;;;;6.15;2.90;;;;;;;15.01;100.00;95820.91;5077246;28;20262;-68
2023/05/21 05:25:43;;;;;;;7.07;3.05;;;;;;;14.99;100.00;95820.31;5077075;28;20223;-69
2023/05/21 05:28:10;;;;;;;5.90;2.85;;;;;;;15.09;100.00;95833.91;5075037;28;20234;-72
2023/05/21 05:30:36;;;;;;;5.35;3.10;;;;;;;15.20;100.00;95835.91;5076212;28;20219;-70
2023/05/21 05:33:02;;;;;;;5.30;2.78;;;;;;;15.36;100.00;95830.09;5077535;28;20208;-71
2023/05/21 05:35:29;;;;;;;6.50;3.10;;;;;;;15.44;100.00;95824.50;5076272;28;20204;-73
2023/05/21 05:37:55;;;;;;;5.07;2.63;;;;;;;15.52;100.00;95830.38;5076091;28;20222;-72
2023/05/21 05:40:23;;;;;;;6.10;3.35;;;;;;;15.62;100.00;95824.59;5076597;28;20208;-72
2023/05/21 05:42:51;;;;;;;11.38;3.42;;;;;;;15.57;100.00;95827.06;5076257;28;20208;-69
2023/05/21 05:45:18;;;;;;;9.65;3.97;;;;;;;15.66;100.00;95821.25;5076710;28;20212;-72
2023/05/21 05:47:45;;;;;;;5.25;3.10;;;;;;;15.68;100.00;95821.03;5075551;28;20314;-69
2023/05/21 05:50:11;;;;;;;6.90;3.63;;;;;;;15.84;100.00;95820.50;5076019;28;20231;-72
2023/05/21 05:52:38;;;;;;;9.10;4.00;;;;;;;15.94;100.00;95814.44;5076528;28;20199;-73
2023/05/21 05:55:07;;;;;;;5.05;3.30;;;;;;;16.03;100.00;95813.13;5076788;28;20211;-72
2023/05/21 05:57:35;;;;;;;6.90;3.85;;;;;;;16.16;100.00;95815.63;5075909;28;20249;-71
2023/05/21 06:00:02;;;;;;;4.68;2.58;;;;;;;16.11;100.00;95825.31;5075866;28;20248;-73
2023/05/21 06:02:28;;;;;;;10.07;3.63;;;;;;;16.11;100.00;95825.31;5076525;28;20204;-74
2023/05/21 06:04:54;;;;;;;4.75;2.45;;;;;;;15.99;100.00;95833.19;5076753;28;20211;-72
2023/05/21 06:07:21;;;;;;;6.60;3.33;;;;;;;16.11;100.00;95839.41;5075607;28;20227;-75
2023/05/21 06:09:47;;;;;;;5.85;3.40;;;;;;;16.19;100.00;95839.13;5076058;28;20224;-73
2023/05/21 06:12:14;;;;;;;8.15;3.67;;;;;;;16.09;100.00;95835.38;5076641;28;20203;-71
2023/05/21 06:14:44;;;;;;;6.13;3.03;;;;;;;16.33;100.00;95830.00;5075831;28;20235;-73
2023/05/21 06:17:11;;;;;;;6.60;3.38;;;;;;;16.49;100.00;95837.38;5076497;28;20224;-74
2023/05/21 06:19:37;;;;;;;5.47;2.90;;;;;;;16.56;100.00;95841.59;5075764;28;20200;-73
2023/05/21 06:22:04;;;;;;;4.40;2.42;;;;;;;16.61;100.00;95832.94;5074669;28;20204;-71
2023/05/21 06:24:31;;;;;;;5.80;3.08;;;;;;;16.81;100.00;95838.84;5074361;28;20192;-75
2023/05/21 06:26:57;;;;;;;6.13;2.95;;;;;;;16.90;100.00;95832.97;5073873;28;20223;-72
2023/05/21 06:29:24;;;;;;;5.13;2.65;;;;;;;16.81;100.00;95834.31;5074050;28;20232;-71
2023/05/21 06:31:52;;;;;;;9.60;3.78;;;;;;;16.87;100.00;95835.28;5074617;28;20208;-71
2023/05/21 06:34:18;;;;;;;9.10;4.22;;;;;;;16.83;100.00;95837.56;5075585;28;20204;-76
2023/05/21 06:36:44;;;;;;;4.63;3.30;;;;;;;17.02;100.00;95833.00;5076224;28;20617;-74
2023/05/21 06:39:11;;;;;;;7.63;3.65;;;;;;;17.08;100.00;95828.41;5077595;28;20235;-74
2023/05/21 06:41:37;;;;;;;8.13;3.20;;;;;;;17.09;100.00;95827.38;5079450;28;20200;-76
2023/05/21 06:44:04;;;;;;;9.02;3.85;;;;;;;17.09;100.00;95830.06;5080190;28;20204;-75
2023/05/21 06:46:31;;;;;;;8.20;3.30;;;;;;;17.24;100.00;95825.13;5079104;28;20207;-74
2023/05/21 06:49:00;;;;;;;6.07;3.53;;;;;;;17.40;99.78;95836.97;5078250;28;20249;-75
2023/05/21 06:51:26;;;;;;;4.13;2.50;;;;;;;17.36;97.32;95833.97;5079520;28;20200;-74
2023/05/21 06:53:53;;;;;;;7.18;3.35;;;;;;;17.44;97.20;95841.63;5079474;28;20208;-77
2023/05/21 06:56:20;;;;;;;4.28;2.63;;;;;;;17.67;97.49;95836.34;5079144;28;20203;-78
2023/05/21 06:58:46;;;;;;;8.30;3.08;;;;;;;17.51;97.83;95841.53;5078694;28;20247;-72
2023/05/21 07:01:13;;;;;;;6.50;3.38;;;;;;;17.60;94.42;95840.94;5079476;28;20554;-74
2023/05/21 07:03:39;;;;;;;5.80;3.03;;;;;;;17.72;93.14;95839.94;5079406;28;20210;-74
2023/05/21 07:06:07;;;;;;;7.43;2.10;;;;;;;17.68;91.01;95843.31;5079339;28;20204;-76
2023/05/21 07:08:34;;;;;;;7.82;3.15;;;;;;;17.70;90.89;95843.06;5078855;28;20230;-74
2023/05/21 07:11:00;;;;;;;5.93;2.83;;;;;;;17.87;90.36;95842.16;5078907;28;20301;-75
2023/05/21 07:13:27;;;;;;;5.93;3.08;;;;;;;17.98;89.20;95844.00;5079993;28;20581;-73
2023/05/21 07:15:53;;;;;;;5.53;2.90;;;;;;;17.92;89.81;95842.25;5079086;28;20204;-73
2023/05/21 07:18:20;;;;;;;5.07;2.60;;;;;;;18.38;91.22;95846.56;5077471;28;20215;-71
2023/05/21 07:20:46;;;;;;;5.78;2.35;;;;;;;18.32;87.80;95846.69;5073663;28;20207;-71
2023/05/21 07:23:14;;;;;;;4.60;2.50;;;;;;;18.47;86.37;95839.84;5077200;28;20196;-71
2023/05/21 07:25:41;;;;;;;5.80;2.65;;;;;;;18.35;87.85;95838.22;5077373;28;20200;-72
2023/05/21 07:28:07;;;;;;;3.75;2.35;;;;;;;18.70;85.69;95845.13;5077536;28;20673;-72
2023/05/21 07:30:34;;;;;;;10.50;3.67;;;;;;;18.59;83.84;95842.47;5076737;28;20203;-73
2023/05/21 07:33:00;;;;;;;6.10;3.13;;;;;;;18.65;83.13;95846.88;5076789;28;20207;-73
2023/05/21 07:35:27;;;;;;;6.10;2.50;;;;;;;18.68;85.21;95846.41;5076868;28;20211;-72
2023/05/21 07:37:54;;;;;;;6.32;3.00;;;;;;;18.88;82.41;95844.94;5076771;28;20721;-71
2023/05/21 07:40:22;;;;;;;3.95;2.17;;;;;;;18.58;83.58;95852.34;5077465;28;20212;-74
2023/05/21 07:42:49;;;;;;;5.45;2.40;;;;;;;18.76;81.23;95849.53;5077277;28;20306;-72
2023/05/21 07:45:15;;;;;;;4.47;2.30;;;;;;;18.83;84.20;95850.19;5077061;28;20199;-73
2023/05/21 07:47:42;;;;;;;5.28;2.88;;;;;;;18.66;83.41;95856.50;5077168;28;20226;-72
2023/05/21 07:50:10;;;;;;;6.45;2.63;;;;;;;18.78;84.11;95855.44;5076503;28;20227;-73
2023/05/21 07:52:36;;;;;;;6.82;2.92;;;;;;;18.58;80.45;95846.19;5076651;28;20208;-76
2023/05/21 07:55:03;;;;;;;4.50;2.58;;;;;;;18.78;84.38;95852.75;5077458;28;20204;-77
2023/05/21 07:57:31;;;;;;;8.02;3.22;;;;;;;19.01;86.76;95853.47;5076607;28;20603;-73
2023/05/21 07:59:57;;;;;;;6.35;2.20;;;;;;;19.03;79.71;95854.06;5077252;28;20230;-72
2023/05/21 08:02:24;;;;;;;3.53;2.20;;;;;;;19.08;79.41;95856.03;5077047;28;20195;-73
2023/05/21 08:04:51;;;;;;;4.20;2.58;;;;;;;19.16;85.03;95845.00;5077448;28;20199;-71
2023/05/21 08:07:18;;;;;;;5.30;2.55;;;;;;;19.33;79.87;95848.53;5076088;28;20273;-74
2023/05/21 08:09:45;;;;;;;5.07;3.13;;;;;;;19.43;80.94;95851.38;5076698;28;20231;-71
2023/05/21 08:12:14;;;;;;;4.80;2.33;;;;;;;19.38;81.54;95853.97;5076208;28;20200;-72
2023/05/21 08:14:42;;;;;;;3.88;2.25;;;;;;;19.81;81.73;95849.63;5076429;28;20890;-74
2023/05/21 08:17:09;;;;;;;5.00;2.40;;;;;;;19.55;77.96;95854.78;5076312;28;20312;-74
2023/05/21 08:19:36;;;;;;;4.68;2.75;;;;;;;19.68;79.32;95853.44;5076194;28;20273;-74
2023/05/21 08:22:05;;;;;;;6.68;2.83;;;;;;;19.75;79.84;95848.72;5076138;28;20220;-74
2023/05/21 08:24:31;;;;;;;6.53;2.97;;;;;;;19.80;82.88;95848.81;5076428;28;20227;-75
2023/05/21 08:26:58;;;;;;;5.82;2.47;;;;;;;19.70;81.17;95854.00;5075816;28;20238;-73
2023/05/21 08:29:25;;;;;;;5.43;2.20;;;;;;;19.62;80.24;95851.72;5076277;28;20722;-74
2023/05/21 08:31:53;;;;;;;5.35;2.30;;;;;;;19.66;75.39;95866.22;5075772;28;20668;-71
2023/05/21 08:34:19;;;;;;;5.07;2.42;;;;;;;19.32;78.61;95866.41;5076453;28;20196;-73
2023/05/21 08:36:46;;;;;;;4.50;1.95;;;;;;;19.68;74.29;95858.78;5076400;28;20227;-70
2023/05/21 08:39:13;;;;;;;7.30;2.95;;;;;;;19.75;74.94;95864.75;5076331;28;20204;-72
2023/05/21 08:41:43;;;;;;;5.50;2.72;;;;;;;19.60;77.72;95869.88;5076132;28;20204;-73
2023/05/21 08:44:12;;;;;;;3.00;1.90;;;;;;;19.66;76.61;95874.22;5076566;28;20225;-71
2023/05/21 08:46:41;;;;;;;5.55;2.67;;;;;;;19.53;75.24;95868.41;5074164;28;20191;-71
2023/05/21 08:49:13;;;;;;;8.77;2.60;;;;;;;19.81;79.51;95855.78;5073734;28;20228;-71
2023/05/21 08:51:40;;;;;;;4.07;2.53;;;;;;;19.94;77.33;95866.19;5075352;28;20621;-69
2023/05/21 08:54:07;;;;;;;3.70;2.28;;;;;;;20.15;79.22;95861.97;5075397;28;20202;-70
2023/05/21 08:56:34;;;;;;;4.63;2.65;;;;;;;19.85;74.78;95864.13;5075648;28;20207;-70
2023/05/21 08:59:02;;;;;;;3.67;2.33;;;;;;;19.63;74.70;95873.94;5075201;28;20203;-71
2023/05/21 09:01:32;;;;;;;4.25;1.70;;;;;;;19.53;75.58;95878.28;5070966;28;20242;-69
2023/05/21 09:04:01;;;;;;;7.68;2.80;;;;;;;19.74;77.91;95871.19;5074223;28;20216;-72
2023/05/21 09:06:32;;;;;;;4.53;2.80;;;;;;;20.15;77.08;95873.50;5074448;28;20204;-72
2023/05/21 09:09:04;;;;;;;3.97;2.10;;;;;;;20.53;77.69;95874.31;5074412;28;20223;-72
2023/05/21 09:11:31;;;;;;;4.25;2.42;;;;;;;20.56;75.65;95875.69;5073915;28;20199;-72
2023/05/21 09:13:59;;;;;;;3.85;2.25;;;;;;;20.64;76.81;95881.41;5074415;28;20196;-71
2023/05/21 09:16:26;;;;;;;7.35;3.15;;;;;;;20.50;76.54;95874.00;5075004;28;20269;-71
2023/05/21 09:18:53;;;;;;;6.47;3.13;;;;;;;20.81;76.34;95879.53;5073345;28;20192;-72
2023/05/21 09:21:24;;;;;;;5.57;3.00;;;;;;;21.10;74.88;95870.25;5075295;28;20203;-72
2023/05/21 09:23:55;;;;;;;4.90;2.75;;;;;;;21.27;75.22;95870.97;5075040;28;20231;-72
2023/05/21 09:26:23;;;;;;;7.88;2.40;;;;;;;21.05;71.18;95880.91;5075582;28;20249;-74
2023/05/21 09:28:50;;;;;;;4.93;2.47;;;;;;;21.53;74.91;95879.88;5074534;28;21488;-72
2023/05/21 09:31:16;;;;;;;5.20;2.85;;;;;;;21.40;71.15;95878.63;5072211;28;20220;-71
2023/05/21 09:33:47;;;;;;;8.90;3.00;;;;;;;21.79;70.24;95879.09;5074436;28;20588;-70
2023/05/21 09:36:15;;;;;;;4.82;2.55;;;;;;;21.86;69.60;95868.13;5073635;28;20615;-71
2023/05/21 09:38:42;;;;;;;6.15;2.28;;;;;;;22.00;72.83;95866.66;5073686;28;20221;-72
2023/05/21 09:41:10;;;;;;;6.05;3.38;;;;;;;22.34;70.07;95868.78;5073719;28;20200;-72
2023/05/21 09:46:28;;;;;;;4.40;2.13;;;;;;;22.64;68.10;95869.00;5092793;27;20547;-73
2023/05/21 09:48:55;;;;;;;5.68;3.20;;;;;;;22.97;66.21;95880.19;5069309;28;20200;-70
2023/05/21 09:51:21;;;;;;;9.25;4.35;;;;;;;23.06;67.33;95875.97;5071771;28;20293;-71
2023/05/21 09:53:53;;;;;;;6.80;3.03;;;;;;;23.31;64.33;95866.91;5066766;28;20357;-71
2023/05/21 09:56:23;;;;;;;8.38;4.15;;;;;;;23.46;68.16;95872.34;5068268;28;20672;-72
2023/05/21 09:58:53;;;;;;;8.82;3.83;;;;;;;23.64;69.37;95876.44;5067376;28;20216;-72
2023/05/21 10:01:21;;;;;;;4.40;2.78;;;;;;;23.75;63.44;95870.84;5068460;28;20219;-72
2023/05/21 10:03:55;;;;;;;4.57;2.30;;;;;;;23.50;69.79;95872.63;5068893;28;20199;-72
2023/05/21 10:06:24;;;;;;;4.38;2.60;;;;;;;23.79;69.70;95877.28;5068541;28;20272;-71
2023/05/21 10:08:53;;;;;;;5.05;2.53;;;;;;;23.67;65.53;95868.63;5070729;28;20223;-73
2023/05/21 10:11:22;;;;;;;6.35;2.63;;;;;;;24.29;62.33;95864.66;5072265;28;20200;-73
2023/05/21 10:13:56;;;;;;;6.75;2.75;;;;;;;24.52;59.10;95866.00;5071647;28;20200;-73
2023/05/21 10:16:25;;;;;;;5.22;2.67;;;;;;;24.63;64.56;95865.69;5071656;28;20961;-72
2023/05/21 10:18:53;;;;;;;10.20;4.00;;;;;;;24.78;60.28;95861.09;5070837;28;20200;-72
2023/05/21 10:21:21;;;;;;;8.10;4.28;;;;;;;24.14;62.65;95861.94;5072433;28;20223;-71
2023/05/21 10:23:48;;;;;;;6.75;2.92;;;;;;;24.34;63.15;95866.53;5071212;28;20293;-72
2023/05/21 10:26:16;;;;;;;5.25;2.90;;;;;;;24.32;61.29;95863.28;5071966;28;20235;-68
2023/05/21 10:28:43;;;;;;;6.68;3.33;;;;;;;24.20;61.51;95862.78;5071420;28;20239;-70
2023/05/21 10:31:11;;;;;;;7.70;3.65;;;;;;;24.36;60.92;95858.97;5072464;28;20223;-71
2023/05/21 10:33:41;;;;;;;5.53;2.85;;;;;;;24.64;64.07;95857.34;5072423;28;20231;-72
2023/05/21 10:36:08;;;;;;;5.25;2.40;;;;;;;24.87;62.46;95856.75;5071660;28;21007;-72
2023/05/21 10:38:37;;;;;;;6.85;2.50;;;;;;;24.65;60.23;95850.06;5072053;28;20255;-69
2023/05/21 10:41:05;;;;;;;5.13;2.28;;;;;;;24.88;56.07;95852.16;5071902;28;20215;-73
2023/05/21 10:43:43;;;;;;;5.43;2.58;;;;;;;24.97;57.73;95851.31;5071964;28;20207;-73
2023/05/21 10:46:30;;;;;;;4.55;2.42;;;;;;;25.39;59.84;95852.53;5071513;28;20240;-73
2023/05/21 10:49:21;;;;;;;3.67;2.15;;;;;;;25.20;50.13;95853.41;5071159;28;20196;-71
2023/05/21 10:51:59;;;;;;;3.75;2.20;;;;;;;25.98;51.87;95848.66;5068559;28;20223;-73
2023/05/21 10:55:01;;;;;;;4.68;2.40;;;;;;;25.90;51.21;95854.66;5072566;28;20202;-71
2023/05/21 10:57:46;;;;;;;4.43;2.38;;;;;;;25.91;52.82;95845.44;5058968;28;20230;-70
2023/05/21 11:00:16;;;;;;;6.30;3.15;;;;;;;26.22;50.09;95838.75;5057706;28;20692;-71
2023/05/21 11:02:44;;;;;;;7.32;2.30;;;;;;;26.37;52.07;95838.63;5058648;28;20204;-72
2023/05/21 11:05:12;;;;;;;3.60;2.30;;;;;;;26.01;54.99;95831.88;5057806;28;20347;-72
2023/05/21 11:07:55;;;;;;;5.13;2.67;;;;;;;25.75;52.15;95842.34;5057553;28;20228;-69
2023/05/21 11:10:35;;;;;;;2.95;1.75;;;;;;;25.69;50.53;95836.16;5058576;28;20242;-75
2023/05/21 11:13:07;;;;;;;3.15;1.73;;;;;;;25.93;49.23;95832.50;5058571;28;20694;-71
2023/05/21 11:16:04;;;;;;;3.30;1.80;;;;;;;26.36;50.05;95837.00;5058051;28;20216;-71
2023/05/21 11:19:01;;;;;;;3.28;1.92;;;;;;;26.62;50.71;95827.56;5055299;28;20231;-72
2023/05/21 11:21:34;;;;;;;4.80;1.98;;;;;;;26.61;50.05;95831.38;5057815;28;20205;-71
2023/05/21 11:24:05;;;;;;;3.15;1.92;;;;;;;26.72;47.44;95828.25;5058872;28;20204;-74
2023/05/21 11:27:01;;;;;;;4.93;2.30;;;;;;;26.58;45.63;95824.63;5058061;28;20232;-71
2023/05/21 11:29:39;;;;;;;4.38;1.85;;;;;;;26.65;49.14;95825.09;5057647;28;20204;-70
2023/05/21 11:32:07;;;;;;;3.97;2.08;;;;;;;25.96;49.29;95823.81;5057695;28;20319;-71
2023/05/21 11:34:38;;;;;;;3.28;1.88;;;;;;;25.77;51.27;95821.28;5057685;28;21252;-73
2023/05/21 11:37:29;;;;;;;4.35;2.10;;;;;;;25.53;50.61;95821.13;5058318;28;20220;-71